createdAt,value
2018-05-18T00:01:01.412Z,99.90
2018-05-18T00:03:27.807Z,99.90
2018-05-18T00:05:54.172Z,99.90
2018-05-18T00:08:20.544Z,99.90
2018-05-18T00:10:46.950Z,99.90
2018-05-18T00:13:13.326Z,99.90
2018-05-18T00:15:40.507Z,99.90
2018-05-18T00:18:06.895Z,99.90
2018-05-18T00:20:33.209Z,99.90
2018-05-18T00:22:59.583Z,99.90
2018-05-18T00:25:25.977Z,99.90
2018-05-18T00:27:52.387Z,99.90
2018-05-18T00:30:18.763Z,99.90
2018-05-18T00:32:45.183Z,99.90
2018-05-18T00:35:11.540Z,99.90
2018-05-18T00:37:37.876Z,99.90
2018-05-18T00:40:05.892Z,99.90
2018-05-18T00:42:32.140Z,99.90
2018-05-18T00:44:58.498Z,99.90
2018-05-18T00:47:25.656Z,99.90
2018-05-18T00:49:51.999Z,99.90
2018-05-18T00:52:18.394Z,99.90
2018-05-18T00:54:44.828Z,99.90
2018-05-18T00:57:11.951Z,99.90
2018-05-18T00:59:38.357Z,99.90
2018-05-18T01:02:05.529Z,99.90
2018-05-18T01:04:31.938Z,99.90
2018-05-18T01:06:58.272Z,99.90
2018-05-18T01:09:24.644Z,99.90
2018-05-18T01:11:51.023Z,99.90
2018-05-18T01:14:17.446Z,99.90
2018-05-18T01:16:43.904Z,99.90
2018-05-18T01:19:10.317Z,99.90
2018-05-18T01:21:36.676Z,99.90
2018-05-18T01:24:03.857Z,99.90
2018-05-18T01:26:30.201Z,99.90
2018-05-18T01:28:56.634Z,99.90
2018-05-18T01:31:23.013Z,99.90
2018-05-18T01:33:50.152Z,99.90
2018-05-18T01:36:16.546Z,99.90
2018-05-18T01:38:42.962Z,99.90
2018-05-18T01:41:09.344Z,99.90
2018-05-18T01:43:35.722Z,99.90
2018-05-18T01:46:02.129Z,99.90
2018-05-18T01:48:29.236Z,99.90
2018-05-18T01:50:55.617Z,99.90
2018-05-18T01:53:22.785Z,99.90
2018-05-18T01:55:49.868Z,99.90
2018-05-18T01:58:16.379Z,99.90
2018-05-18T02:00:42.799Z,99.90
2018-05-18T02:03:09.176Z,99.90
2018-05-18T02:05:35.524Z,99.90
2018-05-18T02:08:02.694Z,99.90
2018-05-18T02:10:29.814Z,99.90
2018-05-18T02:12:56.158Z,99.90
2018-05-18T02:15:22.540Z,99.90
2018-05-18T02:17:48.940Z,99.90
2018-05-18T02:20:16.094Z,99.90
2018-05-18T02:22:42.497Z,99.90
2018-05-18T02:25:08.837Z,99.90
2018-05-18T02:27:35.956Z,99.90
2018-05-18T02:30:02.362Z,99.90
2018-05-18T02:32:28.723Z,99.90
2018-05-18T02:34:55.061Z,99.90
2018-05-18T02:37:21.481Z,99.90
2018-05-18T02:39:47.846Z,99.90
2018-05-18T02:42:14.196Z,99.90
2018-05-18T02:44:40.590Z,99.90
2018-05-18T02:47:06.954Z,99.90
2018-05-18T02:49:34.064Z,99.90
2018-05-18T02:52:00.478Z,99.90
2018-05-18T02:54:26.857Z,99.90
2018-05-18T02:56:53.211Z,99.90
2018-05-18T02:59:19.604Z,99.90
2018-05-18T03:01:45.945Z,99.90
2018-05-18T03:04:12.275Z,99.90
2018-05-18T03:06:38.686Z,99.90
2018-05-18T03:09:05.052Z,99.90
2018-05-18T03:11:32.132Z,99.90
2018-05-18T03:13:59.228Z,99.90
2018-05-18T03:16:25.581Z,99.90
2018-05-18T03:18:52.691Z,99.90
2018-05-18T03:21:19.080Z,99.90
2018-05-18T03:23:45.451Z,99.90
2018-05-18T03:26:12.597Z,99.90
2018-05-18T03:28:38.991Z,99.90
2018-05-18T03:31:05.403Z,99.90
2018-05-18T03:33:31.776Z,99.90
2018-05-18T03:35:58.131Z,99.90
2018-05-18T03:38:24.473Z,99.90
2018-05-18T03:40:50.817Z,99.90
2018-05-18T03:43:18.158Z,99.90
2018-05-18T03:45:44.501Z,99.90
2018-05-18T03:48:10.849Z,99.90
2018-05-18T03:50:37.230Z,99.90
2018-05-18T03:53:03.585Z,99.90
2018-05-18T03:55:29.929Z,99.90
2018-05-18T03:57:56.352Z,99.90
2018-05-18T04:00:22.696Z,99.90
2018-05-18T04:03:01.415Z,99.90
2018-05-18T04:05:40.093Z,99.90
2018-05-18T04:08:18.815Z,99.90
2018-05-18T04:10:45.188Z,99.90
2018-05-18T04:13:11.553Z,99.90
2018-05-18T04:15:37.945Z,99.90
2018-05-18T04:18:04.296Z,99.90
2018-05-18T04:20:30.656Z,99.90
2018-05-18T04:22:57.049Z,99.90
2018-05-18T04:25:23.414Z,99.90
2018-05-18T04:27:49.786Z,99.90
2018-05-18T04:30:16.246Z,99.90
2018-05-18T04:32:42.597Z,99.90
2018-05-18T04:35:09.689Z,99.90
2018-05-18T04:37:36.037Z,99.90
2018-05-18T04:40:02.459Z,99.90
2018-05-18T04:42:28.819Z,99.90
2018-05-18T04:44:55.225Z,99.90
2018-05-18T04:47:21.596Z,99.90
2018-05-18T04:49:48.713Z,99.90
2018-05-18T04:52:15.128Z,99.90
2018-05-18T04:54:41.474Z,99.90
2018-05-18T04:57:07.803Z,99.90
2018-05-18T04:59:34.209Z,99.90
2018-05-18T05:02:00.554Z,99.90
2018-05-18T05:04:26.938Z,99.20
2018-05-18T05:06:54.036Z,90.30
2018-05-18T05:09:20.405Z,89.90
2018-05-18T05:11:46.793Z,78.90
2018-05-18T05:14:13.172Z,73.30
2018-05-18T05:16:39.543Z,68.00
2018-05-18T05:19:05.919Z,66.70
2018-05-18T05:21:32.306Z,64.30
2018-05-18T05:23:58.680Z,60.70
2018-05-18T05:26:25.050Z,58.70
2018-05-18T05:28:51.500Z,57.70
2018-05-18T05:31:17.890Z,56.30
2018-05-18T05:33:45.728Z,57.90
2018-05-18T05:36:12.126Z,57.80
2018-05-18T05:38:38.533Z,58.60
2018-05-18T05:41:05.653Z,62.20
2018-05-18T05:43:32.049Z,62.20
2018-05-18T05:45:58.398Z,63.90
2018-05-18T05:48:24.737Z,64.80
2018-05-18T05:50:51.099Z,65.70
2018-05-18T05:53:17.458Z,64.90
2018-05-18T05:55:43.864Z,64.90
2018-05-18T05:58:10.264Z,65.00
2018-05-18T06:00:36.649Z,63.40
2018-05-18T06:03:03.030Z,62.20
2018-05-18T06:05:29.432Z,61.00
2018-05-18T06:07:55.787Z,61.90
2018-05-18T06:10:22.144Z,61.40
2018-05-18T06:12:48.546Z,60.00
2018-05-18T06:15:14.978Z,61.50
2018-05-18T06:17:41.272Z,60.20
2018-05-18T06:20:08.408Z,58.60
2018-05-18T06:22:35.512Z,58.90
2018-05-18T06:25:01.906Z,58.60
2018-05-18T06:27:29.006Z,57.30
2018-05-18T06:29:55.420Z,57.30
2018-05-18T06:32:21.797Z,57.20
2018-05-18T06:34:48.927Z,57.50
2018-05-18T06:37:16.770Z,59.10
2018-05-18T06:39:43.115Z,59.10
2018-05-18T06:42:10.311Z,59.70
2018-05-18T06:44:37.426Z,60.20
2018-05-18T06:47:03.786Z,60.20
2018-05-18T06:49:30.916Z,62.80
2018-05-18T06:51:58.757Z,62.50
2018-05-18T06:54:32.024Z,62.50
2018-05-18T06:56:58.379Z,63.70
2018-05-18T06:59:24.743Z,63.70
2018-05-18T07:01:51.225Z,63.80
2018-05-18T07:04:18.545Z,64.10
2018-05-18T07:06:44.892Z,64.60
2018-05-18T07:09:11.244Z,64.60
2018-05-18T07:11:37.592Z,64.70
2018-05-18T07:14:03.937Z,65.60
2018-05-18T07:16:30.382Z,64.50
2018-05-18T07:18:56.684Z,65.20
2018-05-18T07:21:23.048Z,64.90
2018-05-18T07:23:49.452Z,65.00
2018-05-18T07:26:16.604Z,67.20
2018-05-18T07:28:43.090Z,66.30
2018-05-18T07:31:12.155Z,61.90
2018-05-18T07:33:38.639Z,61.90
2018-05-18T07:36:05.297Z,61.30
2018-05-18T07:38:31.807Z,58.80
2018-05-18T07:40:58.153Z,57.30
2018-05-18T07:43:24.498Z,55.40
2018-05-18T07:45:51.027Z,54.40
2018-05-18T07:48:17.961Z,53.60
2018-05-18T07:50:45.266Z,55.10
2018-05-18T07:53:11.673Z,55.10
2018-05-18T07:55:38.267Z,54.90
2018-05-18T07:58:04.645Z,56.20
2018-05-18T08:00:31.025Z,56.50
2018-05-18T08:02:57.349Z,56.60
2018-05-18T08:05:24.462Z,58.00
2018-05-18T08:07:50.913Z,58.00
2018-05-18T08:10:17.221Z,57.90
2018-05-18T08:12:43.574Z,59.20
2018-05-18T08:15:10.758Z,59.80
2018-05-18T08:17:37.829Z,58.50
2018-05-18T08:20:04.168Z,58.50
2018-05-18T08:22:30.608Z,58.70
2018-05-18T08:24:57.010Z,59.70
2018-05-18T08:27:24.120Z,50.50
2018-05-18T08:29:51.273Z,45.50
2018-05-18T08:32:17.601Z,45.40
2018-05-18T08:34:44.772Z,38.70
2018-05-18T08:37:11.883Z,35.30
2018-05-18T08:39:38.233Z,35.20
2018-05-18T08:42:04.741Z,33.30
2018-05-18T08:44:31.143Z,32.80
2018-05-18T08:46:57.503Z,34.10
2018-05-18T08:49:23.871Z,35.80
2018-05-18T08:51:51.000Z,40.90
2018-05-18T08:54:17.338Z,40.90
2018-05-18T08:56:43.695Z,42.50
2018-05-18T08:59:10.830Z,47.00
2018-05-18T09:01:37.169Z,46.30
2018-05-18T09:04:04.262Z,48.80
2018-05-18T09:06:30.656Z,48.80
2018-05-18T09:08:57.060Z,49.90
2018-05-18T09:11:23.414Z,51.00
2018-05-18T09:13:49.817Z,51.90
2018-05-18T09:16:16.169Z,51.70
2018-05-18T09:18:42.513Z,51.90
2018-05-18T09:21:09.633Z,52.80
2018-05-18T09:23:37.497Z,52.60
2018-05-18T09:26:03.867Z,52.50
2018-05-18T09:28:30.979Z,53.80
2018-05-18T09:30:57.323Z,53.80
2018-05-18T09:33:24.447Z,54.20
2018-05-18T09:35:50.860Z,54.30
2018-05-18T09:38:17.222Z,55.20
2018-05-18T09:40:43.582Z,56.10
2018-05-18T09:43:09.960Z,56.60
2018-05-18T09:45:36.305Z,56.10
2018-05-18T09:48:02.677Z,56.90
2018-05-18T09:50:29.015Z,56.70
2018-05-18T09:52:56.126Z,57.70
2018-05-18T09:55:22.577Z,57.70
2018-05-18T09:57:48.855Z,57.80
2018-05-18T10:00:15.216Z,58.10
2018-05-18T10:02:41.564Z,57.50
2018-05-18T10:05:07.936Z,57.30
2018-05-18T10:07:35.030Z,57.30
2018-05-18T10:10:01.380Z,57.30
2018-05-18T10:12:27.800Z,57.70
2018-05-18T10:14:54.262Z,56.90
2018-05-18T10:17:21.368Z,58.20
2018-05-18T10:19:47.742Z,58.10
2018-05-18T10:22:14.062Z,57.70
2018-05-18T10:24:40.429Z,57.80
2018-05-18T10:27:07.573Z,56.50
2018-05-18T10:29:34.662Z,57.40
2018-05-18T10:32:01.005Z,57.30
2018-05-18T10:34:27.399Z,57.00
2018-05-18T10:36:53.829Z,56.30
2018-05-18T10:39:20.199Z,56.00
2018-05-18T10:41:46.609Z,55.80
2018-05-18T10:44:13.001Z,55.10
2018-05-18T10:46:39.402Z,55.20
2018-05-18T10:49:05.777Z,56.20
2018-05-18T10:51:32.872Z,56.10
2018-05-18T10:53:59.228Z,56.10
2018-05-18T10:56:27.238Z,56.00
2018-05-18T10:58:53.595Z,56.00
2018-05-18T11:01:19.957Z,56.20
2018-05-18T11:03:47.118Z,56.00
2018-05-18T11:06:13.454Z,56.10
2018-05-18T11:08:39.765Z,56.30
2018-05-18T11:11:06.137Z,56.20
2018-05-18T11:13:33.235Z,55.90
2018-05-18T11:15:59.609Z,55.80
2018-05-18T11:18:26.729Z,56.00
2018-05-18T11:20:53.061Z,56.00
2018-05-18T11:23:26.360Z,56.00
2018-05-18T11:25:52.729Z,56.40
2018-05-18T11:28:19.097Z,55.40
2018-05-18T11:30:45.475Z,55.30
2018-05-18T11:33:12.071Z,55.20
2018-05-18T11:35:38.248Z,55.50
2018-05-18T11:38:05.426Z,55.80
2018-05-18T11:40:31.782Z,55.80
2018-05-18T11:42:58.153Z,54.90
2018-05-18T11:45:26.021Z,55.30
2018-05-18T11:47:52.370Z,55.30
2018-05-18T11:50:18.723Z,55.90
2018-05-18T11:52:45.149Z,55.60
2018-05-18T11:55:11.511Z,55.90
2018-05-18T11:57:37.857Z,55.20
2018-05-18T12:00:04.313Z,55.00
2018-05-18T12:02:30.786Z,55.50
2018-05-18T12:04:57.056Z,55.80
2018-05-18T12:07:23.645Z,55.70
2018-05-18T12:09:50.019Z,56.00
2018-05-18T12:12:16.385Z,56.40
2018-05-18T12:14:43.532Z,56.30
2018-05-18T12:17:10.632Z,56.10
2018-05-18T12:19:36.992Z,56.10
2018-05-18T12:22:03.363Z,56.60
2018-05-18T12:24:29.702Z,57.40
2018-05-18T12:26:56.049Z,57.10
2018-05-18T12:29:22.425Z,56.90
2018-05-18T12:31:48.759Z,56.50
2018-05-18T12:34:15.859Z,57.40
2018-05-18T12:36:42.277Z,57.30
2018-05-18T12:39:08.679Z,57.00
2018-05-18T12:41:35.068Z,56.90
2018-05-18T12:44:01.457Z,57.00
2018-05-18T12:46:28.551Z,57.60
2018-05-18T12:48:55.178Z,57.60
2018-05-18T12:51:21.573Z,57.10
2018-05-18T12:53:47.922Z,56.80
2018-05-18T12:56:14.269Z,57.50
2018-05-18T12:58:40.641Z,57.60
2018-05-18T13:01:06.991Z,58.20
2018-05-18T13:03:34.101Z,58.30
2018-05-18T13:06:00.519Z,58.30
2018-05-18T13:08:26.891Z,57.90
2018-05-18T13:10:53.215Z,58.50
2018-05-18T13:13:19.622Z,58.90
2018-05-18T13:15:45.963Z,58.60
2018-05-18T13:18:12.322Z,59.20
2018-05-18T13:20:38.698Z,59.10
2018-05-18T13:23:05.073Z,59.60
2018-05-18T13:25:31.434Z,59.90
2018-05-18T13:27:58.554Z,60.60
2018-05-18T13:30:24.892Z,60.50
2018-05-18T13:32:51.212Z,60.30
2018-05-18T13:35:17.560Z,60.30
2018-05-18T13:37:43.947Z,60.70
2018-05-18T13:40:10.315Z,60.30
2018-05-18T13:42:36.752Z,60.60
2018-05-18T13:45:03.979Z,59.50
2018-05-18T13:47:30.298Z,60.10
2018-05-18T13:49:56.673Z,60.70
2018-05-18T13:52:23.809Z,60.70
2018-05-18T13:54:50.153Z,60.60
2018-05-18T13:57:17.423Z,61.40
2018-05-18T13:59:43.713Z,61.30
2018-05-18T14:02:10.057Z,61.60
2018-05-18T14:04:37.179Z,62.10
2018-05-18T14:07:03.531Z,62.20
2018-05-18T14:09:29.872Z,61.80
2018-05-18T14:11:56.987Z,61.70
2018-05-18T14:14:23.339Z,61.70
2018-05-18T14:16:49.661Z,61.70
2018-05-18T14:19:16.041Z,62.20
2018-05-18T14:21:42.376Z,62.50
2018-05-18T14:24:08.753Z,62.70
2018-05-18T14:26:35.124Z,62.70
2018-05-18T14:29:02.249Z,63.30
2018-05-18T14:31:28.619Z,63.30
2018-05-18T14:33:54.997Z,63.60
2018-05-18T14:36:21.385Z,64.80
2018-05-18T14:38:47.750Z,64.60
2018-05-18T14:41:14.208Z,64.80
2018-05-18T14:43:41.334Z,64.50
2018-05-18T14:46:07.980Z,64.50
2018-05-18T14:48:34.354Z,64.20
2018-05-18T14:51:00.727Z,64.70
2018-05-18T14:53:27.193Z,64.90
2018-05-18T14:55:53.629Z,65.40
2018-05-18T14:58:19.985Z,65.10
2018-05-18T15:00:46.343Z,65.10
2018-05-18T15:03:12.753Z,66.00
2018-05-18T15:05:40.729Z,67.00
2018-05-18T15:08:07.033Z,66.90
2018-05-18T15:10:33.400Z,67.30
2018-05-18T15:12:59.809Z,67.80
2018-05-18T15:15:26.914Z,68.00
2018-05-18T15:17:53.358Z,68.00
2018-05-18T15:20:19.739Z,68.40
2018-05-18T15:22:46.153Z,68.70
2018-05-18T15:25:13.343Z,70.00
2018-05-18T15:27:39.739Z,69.90
2018-05-18T15:30:06.197Z,70.40
2018-05-18T15:32:32.630Z,70.90
2018-05-18T15:34:58.979Z,70.90
2018-05-18T15:37:25.375Z,70.30
2018-05-18T15:39:51.760Z,71.40
2018-05-18T15:42:18.188Z,72.40
2018-05-18T15:44:44.573Z,73.80
2018-05-18T15:47:10.980Z,74.20
2018-05-18T15:49:37.377Z,75.20
2018-05-18T15:52:03.725Z,75.50
2018-05-18T15:54:30.655Z,75.80
2018-05-18T15:56:58.075Z,76.10
2018-05-18T15:59:24.449Z,76.30
2018-05-18T16:01:50.837Z,76.90
2018-05-18T16:04:17.227Z,76.90
2018-05-18T16:06:43.602Z,77.30
2018-05-18T16:09:10.011Z,78.50
2018-05-18T16:11:36.382Z,79.10
2018-05-18T16:14:02.802Z,79.80
2018-05-18T16:16:29.944Z,82.30
2018-05-18T16:18:57.064Z,83.40
2018-05-18T16:21:23.457Z,83.30
2018-05-18T16:23:49.921Z,84.60
2018-05-18T16:26:16.327Z,86.30
2018-05-18T16:28:42.723Z,86.90
2018-05-18T16:31:09.877Z,89.60
2018-05-18T16:33:36.291Z,89.60
2018-05-18T16:36:02.651Z,90.10
2018-05-18T16:38:29.081Z,90.60
2018-05-18T16:40:55.494Z,90.50
2018-05-18T16:43:22.622Z,91.10
2018-05-18T16:45:49.200Z,91.10
2018-05-18T16:48:16.404Z,92.20
2018-05-18T16:50:42.862Z,92.10
2018-05-18T16:53:10.022Z,92.10
2018-05-18T16:55:37.122Z,92.70
2018-05-18T16:58:03.582Z,92.70
2018-05-18T17:00:29.929Z,93.50
2018-05-18T17:02:56.337Z,93.80
2018-05-18T17:05:22.703Z,93.90
2018-05-18T17:07:49.819Z,94.50
2018-05-18T17:10:16.181Z,94.40
2018-05-18T17:12:43.288Z,95.80
2018-05-18T17:15:10.482Z,95.70
2018-05-18T17:17:36.840Z,96.00
2018-05-18T17:20:03.210Z,96.50
2018-05-18T17:22:29.616Z,96.90
2018-05-18T17:24:56.035Z,97.40
2018-05-18T17:27:22.386Z,97.60
2018-05-18T17:29:48.783Z,97.80
2018-05-18T17:32:15.182Z,98.50
2018-05-18T17:34:41.525Z,98.70
2018-05-18T17:37:07.903Z,99.50
2018-05-18T17:39:34.443Z,99.80
2018-05-18T17:42:00.818Z,99.20
2018-05-18T17:44:28.002Z,98.20
2018-05-18T17:46:54.357Z,98.20
2018-05-18T17:49:20.750Z,98.30
2018-05-18T17:51:47.154Z,98.60
2018-05-18T17:54:13.557Z,99.10
2018-05-18T17:56:39.910Z,99.80
2018-05-18T17:59:06.319Z,99.90
2018-05-18T18:01:32.770Z,99.90
2018-05-18T18:04:00.410Z,99.90
2018-05-18T18:06:27.054Z,99.90
2018-05-18T18:08:53.680Z,99.90
2018-05-18T18:11:21.458Z,99.90
2018-05-18T18:13:48.962Z,99.90
2018-05-18T18:16:15.343Z,99.90
2018-05-18T18:18:42.922Z,99.90
2018-05-18T18:21:10.126Z,99.90
2018-05-18T18:23:36.960Z,99.90
2018-05-18T18:26:04.066Z,99.90
2018-05-18T18:28:30.573Z,99.90
2018-05-18T18:30:56.842Z,99.90
2018-05-18T18:33:23.241Z,99.90
2018-05-18T18:35:50.057Z,99.90
2018-05-18T18:38:16.653Z,99.90
2018-05-18T18:40:43.009Z,99.90
2018-05-18T18:43:09.421Z,99.90
2018-05-18T18:45:35.804Z,99.90
2018-05-18T18:48:02.938Z,99.90
2018-05-18T18:50:29.714Z,99.90
2018-05-18T18:52:57.894Z,99.90
2018-05-18T18:55:24.358Z,99.90
2018-05-18T18:57:50.749Z,99.90
2018-05-18T19:00:17.120Z,99.90
2018-05-18T19:02:43.467Z,99.90
2018-05-18T19:05:10.627Z,99.90
2018-05-18T19:07:37.705Z,99.90
2018-05-18T19:10:04.110Z,99.90
2018-05-18T19:12:30.544Z,99.90
2018-05-18T19:14:57.670Z,99.90
2018-05-18T19:17:24.033Z,99.90
2018-05-18T19:19:50.427Z,99.90
2018-05-18T19:22:16.787Z,99.90
2018-05-18T19:24:43.149Z,99.90
2018-05-18T19:27:09.556Z,99.90
2018-05-18T19:29:36.770Z,99.90
2018-05-18T19:32:03.026Z,99.90
2018-05-18T19:34:29.505Z,99.90
2018-05-18T19:36:55.858Z,99.90
2018-05-18T19:39:22.201Z,99.90
2018-05-18T19:44:12.350Z,99.90
2018-05-18T19:46:38.778Z,99.90
2018-05-18T19:49:05.278Z,99.90
2018-05-18T19:51:31.638Z,99.90
2018-05-18T19:53:58.722Z,99.90
2018-05-18T19:56:25.075Z,99.90
2018-05-18T19:58:51.466Z,99.90
2018-05-18T20:01:17.813Z,99.90
2018-05-18T20:03:44.179Z,99.90
2018-05-18T20:06:10.569Z,99.90
2018-05-18T20:08:37.225Z,99.90
2018-05-18T20:11:03.651Z,99.90
2018-05-18T20:13:30.016Z,99.90
2018-05-18T20:15:56.375Z,99.90
2018-05-18T20:18:23.470Z,99.90
2018-05-18T20:20:49.870Z,99.90
2018-05-18T20:23:16.217Z,99.90
2018-05-18T20:25:42.613Z,99.90
2018-05-18T20:28:09.038Z,99.90
2018-05-18T20:30:36.121Z,99.90
2018-05-18T20:33:02.486Z,99.90
2018-05-18T20:35:28.823Z,99.90
2018-05-18T20:37:55.187Z,99.90
2018-05-18T20:40:22.317Z,99.90
2018-05-18T20:42:48.673Z,99.90
2018-05-18T20:45:15.062Z,99.90
2018-05-18T20:47:41.460Z,99.90
2018-05-18T20:50:07.850Z,99.90
2018-05-18T20:52:34.206Z,99.90
2018-05-18T20:55:01.322Z,99.90
2018-05-18T20:57:27.718Z,99.90
2018-05-18T20:59:54.313Z,99.90
2018-05-18T21:02:21.410Z,99.90
2018-05-18T21:04:47.785Z,99.90
2018-05-18T21:07:14.141Z,99.90
2018-05-18T21:09:41.217Z,99.90
2018-05-18T21:12:07.941Z,99.90
2018-05-18T21:14:34.412Z,99.90
2018-05-18T21:17:00.781Z,99.90
2018-05-18T21:19:27.110Z,99.90
2018-05-18T21:21:54.202Z,99.90
2018-05-18T21:24:20.510Z,99.90
2018-05-18T21:26:46.897Z,99.90
2018-05-18T21:29:13.258Z,99.90
2018-05-18T21:31:40.351Z,99.90
2018-05-18T21:34:06.761Z,99.90
2018-05-18T21:36:33.161Z,99.90
2018-05-18T21:39:00.317Z,99.90
2018-05-18T21:41:27.493Z,99.90
2018-05-18T21:43:53.839Z,99.90
2018-05-18T21:46:20.177Z,99.90
2018-05-18T21:48:46.553Z,99.90
2018-05-18T21:51:12.896Z,99.90
2018-05-18T21:53:39.992Z,99.90
2018-05-18T21:56:06.343Z,99.90
2018-05-18T21:58:32.721Z,99.90
2018-05-18T22:01:00.510Z,99.90
2018-05-18T22:03:26.894Z,99.90
2018-05-18T22:05:53.221Z,99.90
2018-05-18T22:08:19.565Z,99.90
2018-05-18T22:10:46.693Z,99.90
2018-05-18T22:13:13.030Z,99.90
2018-05-18T22:15:39.359Z,99.90
2018-05-18T22:18:05.760Z,99.90
2018-05-18T22:20:32.096Z,99.90
2018-05-18T22:22:58.456Z,99.90
2018-05-18T22:25:24.822Z,99.90
2018-05-18T22:27:51.205Z,99.90
2018-05-18T22:30:17.585Z,99.90
2018-05-18T22:32:44.664Z,99.90
2018-05-18T22:35:11.045Z,99.90
2018-05-18T22:37:38.160Z,99.90
2018-05-18T22:40:04.545Z,99.90
2018-05-18T22:42:31.616Z,99.90
2018-05-18T22:44:57.972Z,99.90
2018-05-18T22:47:24.337Z,99.90
2018-05-18T22:49:51.461Z,99.90
2018-05-18T22:52:17.814Z,99.90
2018-05-18T22:54:44.930Z,99.90
2018-05-18T22:57:11.278Z,99.90
2018-05-18T22:59:37.611Z,99.90
2018-05-18T23:02:04.061Z,99.90
2018-05-18T23:04:31.163Z,99.90
2018-05-18T23:06:58.289Z,99.90
2018-05-18T23:09:24.679Z,99.90
2018-05-18T23:11:51.023Z,99.90
2018-05-18T23:14:17.354Z,99.90
2018-05-18T23:16:44.475Z,99.90
2018-05-18T23:19:10.796Z,99.90
2018-05-18T23:21:37.162Z,99.90
2018-05-18T23:24:04.300Z,99.90
2018-05-18T23:26:30.650Z,99.90
2018-05-18T23:28:57.748Z,99.90
2018-05-18T23:31:24.134Z,99.90
2018-05-18T23:33:50.489Z,99.90
2018-05-18T23:36:16.837Z,99.90
2018-05-18T23:38:43.233Z,99.90
2018-05-18T23:41:10.327Z,99.90
2018-05-18T23:43:36.714Z,99.90
2018-05-18T23:46:03.841Z,99.90
2018-05-18T23:48:30.180Z,99.90
2018-05-18T23:50:56.510Z,99.90
2018-05-18T23:53:23.646Z,99.90
2018-05-18T23:55:49.978Z,99.90
2018-05-18T23:58:23.357Z,99.90
